Latest Weather Observations for Dubbo

IDN60801

Issued at 2:04 pm EDT Monday 2 March 2015 (issued every 30 minutes, with the page automatically refreshed every 10 minutes)

About weather observations | Map of weather stations | Latest weather observations for NSW | Other Formats
Station Details ID: 065070 Name: DUBBO AIRPORT AWS Lat: -32.22 Lon: 148.58 Height: 284.0 m
Data from the previous 72 hours. | See also: Recent months at Dubbo
Date/Time
EDT
Temp
°C
App
Temp
°C
Dew
Point
Rel
Hum
%
Delta-T
°C
Wind Press
QNH
hPa
Press
MSL
hPa
Rain
since 9 am
mm
Dir
 
Spd
km/h
Gust
km/h
Spd
kts
Gust
kts
02/02:00pm 30.2 27.3 15.1 40 9.4 ENE 24 35 13 19 1013.9 1012.7 0.0
02/01:30pm 29.2 25.4 14.6 41 8.9 ENE 28 37 15 20 1014.3 1013.1 0.0
02/01:00pm 28.9 25.6 15.1 43 8.5 E 26 39 14 21 1014.8 1013.7 0.0
02/12:30pm 29.0 25.1 15.5 44 8.4 E 30 41 16 22 1015.1 1014.0 0.0
02/12:00pm 27.9 24.0 15.5 46 7.7 E 30 44 16 24 1015.3 1014.2 0.0
02/11:30am 27.1 22.6 14.8 47 7.5 E 32 44 17 24 1015.8 1014.7 0.0
02/11:00am 25.9 21.2 14.4 49 6.9 E 32 43 17 23 1016.3 1015.1 0.0
02/10:30am 24.6 19.8 14.1 52 6.3 E 32 46 17 25 1016.2 1015.0 0.0
02/10:00am 23.5 17.3 13.7 54 5.8 E 39 50 21 27 1016.0 1014.8 0.0
02/09:30am 22.7 17.4 13.2 55 5.5 E 33 43 18 23 1016.0 1014.8 0.0
02/09:00am 21.7 16.0 13.1 58 5.0 E 35 48 19 26 1015.7 1014.6 0.0
02/08:30am 20.5 15.3 12.7 61 4.5 E 32 43 17 23 1015.7 1014.6 0.0
02/08:00am 19.5 14.3 12.7 65 3.9 E 32 46 17 25 1015.6 1014.5 0.0
02/07:30am 18.7 14.4 13.1 70 3.2 ESE 28 35 15 19 1015.3 1014.2 0.0
02/07:00am 18.0 14.4 13.1 73 2.8 ESE 24 33 13 18 1014.8 1013.7 0.0
02/06:30am 18.1 14.5 13.0 72 2.9 ESE 24 32 13 17 1014.5 1013.3 0.0
02/06:00am 18.3 14.7 13.2 72 2.9 ESE 24 32 13 17 1014.4 1013.2 0.0
02/05:30am 18.1 14.7 13.6 75 2.6 ESE 24 33 13 18 1014.2 1013.0 0.0
02/05:00am 18.0 15.4 13.3 74 2.7 ESE 19 28 10 15 1013.9 1012.7 0.0
02/04:30am 18.3 15.6 13.6 74 2.7 ESE 20 30 11 16 1013.6 1012.4 0.0
02/04:00am 18.8 16.1 14.5 76 2.5 SE 22 32 12 17 1013.5 1012.3 0.0
02/03:30am 19.3 17.1 15.0 76 2.5 ESE 20 30 11 16 1013.2 1012.0 0.0
02/03:00am 20.1 16.5 15.3 74 2.9 ESE 28 46 15 25 1013.0 1011.8 0.0
02/02:30am 21.8 16.2 15.6 68 3.8 E 39 57 21 31 1013.0 1011.8 0.0
02/02:11am 22.3 19.4 17.0 72 3.3 E 28 50 15 27 1012.8 1011.6 0.0
02/02:00am 22.2 19.4 17.3 74 3.1 E 28 43 15 23 1012.8 1011.6 0.0
02/01:30am 21.9 19.7 17.9 78 2.5 E 26 35 14 19 1012.8 1011.6 0.0
02/01:00am 22.2 19.8 18.2 78 2.5 ENE 28 39 15 21 1012.6 1011.4 0.0
02/12:58am 22.2 19.8 18.2 78 2.5 ENE 28 39 15 21 1012.6 1011.4 0.0
02/12:30am 19.1 15.6 7.2 46 6.1 SE 15 17 8 9 1012.3 1011.1 0.0
02/12:00am 21.8 18.2 6.9 38 7.7 S 15 17 8 9 1011.5 1010.4 0.0
 
Date/Time
EDT
Temp
°C
App
Temp
°C
Dew
Point
Rel
Hum
%
Delta-T
°C
Wind Press
QNH
hPa
Press
MSL
hPa
Rain
since 9 am
mm
Dir
 
Spd
km/h
Gust
km/h
Spd
kts
Gust
kts
01/11:30pm 21.5 18.4 7.3 40 7.4 S 13 19 7 10 1011.7 1010.6 0.0
01/11:00pm 21.6 18.6 7.8 41 7.3 S 13 17 7 9 1011.9 1010.8 0.0
01/10:30pm 22.0 19.8 9.5 45 6.8 SSW 11 13 6 7 1012.0 1010.9 0.0
01/08:30pm 28.0 23.8 12.4 38 9.2 S 26 35 14 19 1010.0 1008.8 0.0
01/08:00pm 28.9 25.0 14.3 40 8.9 S 28 39 15 21 1009.1 1007.9 0.0
01/07:30pm 30.3 26.9 14.8 39 9.6 SSW 26 41 14 22 1008.2 1007.0 0.0
01/07:00pm 31.6 27.0 14.7 36 10.5 SSW 32 44 17 24 1007.4 1006.2 0.0
01/06:30pm 33.7 29.9 14.7 32 11.9 SW 28 39 15 21 1006.9 1005.7 0.0
01/06:00pm 34.6 29.2 14.0 29 12.8 SW 35 48 19 26 1006.2 1005.0 0.0
01/05:45pm 35.1 30.6 13.8 27 13.2 WSW 30 50 16 27 1005.8 1004.6 0.0
01/05:30pm 35.2 32.5 15.5 30 12.5 W 24 33 13 18 1005.7 1004.5 0.0
01/05:00pm 34.7 30.7 14.0 28 12.9 WNW 28 35 15 19 1005.5 1004.3 0.0
01/04:30pm 31.6 25.9 16.3 39 9.7 NW 41 59 22 32 1006.1 1004.9 0.0
01/04:26pm 32.3 27.1 16.6 39 10.0 WNW 39 59 21 32 1006.0 1004.8 0.0
01/04:12pm 34.2 29.2 16.1 34 11.5 W 37 59 20 32 1005.8 1004.6 0.0
01/04:00pm 35.0 31.4 15.3 30 12.5 W 28 37 15 20 1005.4 1004.2 0.0
01/03:30pm 37.7 35.6 17.1 29 13.5 WNW 24 35 13 19 1005.6 1004.4 0.0
01/03:00pm 35.3 32.4 16.1 32 12.3 NW 26 39 14 21 1006.3 1005.1 0.0
01/02:30pm 35.7 34.5 17.4 33 11.9 WNW 20 28 11 15 1006.9 1005.7 0.0
01/02:00pm 34.4 32.5 16.7 34 11.4 WNW 22 37 12 20 1007.2 1006.0 0.0
01/01:30pm 35.2 34.1 18.7 37 10.9 NW 22 33 12 18 1007.6 1006.4 0.0
01/01:00pm 34.4 33.4 19.6 41 9.9 NW 24 35 13 19 1008.0 1006.8 0.0
01/12:30pm 33.3 32.2 19.4 44 9.2 NNW 24 37 13 20 1008.6 1007.4 0.0
01/12:00pm 33.6 32.7 20.7 46 8.7 NW 26 37 14 20 1009.0 1007.8 0.0
01/11:30am 32.5 31.1 20.4 49 8.1 NW 28 35 15 19 1009.3 1008.1 0.0
01/11:00am 31.5 29.6 20.1 50 7.6 NNW 30 41 16 22 1009.2 1008.0 0.0
01/10:30am 31.2 29.3 20.2 52 7.4 NNW 30 44 16 24 1009.1 1007.5 0.0
01/10:00am 30.6 28.7 20.2 53 7.0 N 30 41 16 22 1008.9 1007.3 0.0
01/09:30am 29.2 30.1 20.1 58 6.0 N 15 30 8 16 1009.0 1007.4 0.0
01/09:00am 26.6 27.6 17.7 58 5.7 NE 9 13 5 7 1009.1 1007.5 0.0
01/08:30am 25.7 26.4 17.1 59 5.4 E 9 11 5 6 1008.8 1007.2 0.0
01/08:00am 23.5 23.8 16.1 63 4.6 SE 9 11 5 6 1008.6 1007.0 0.0
01/07:30am 21.3 21.3 16.3 73 3.1 ESE 11 13 6 7 1008.1 1006.6 0.0
01/07:00am 19.6 19.1 15.0 75 2.7 ESE 11 13 6 7 1007.6 1006.1 0.0
01/06:30am 19.6 19.1 14.8 74 2.8 E 11 13 6 7 1007.4 1005.8 0.0
01/06:00am 20.0 19.2 15.0 73 3.0 E 13 15 7 8 1007.1 1005.5 0.0
01/05:30am 19.7 19.1 14.5 72 3.1 E 11 13 6 7 1006.9 1005.3 0.0
01/05:00am 20.3 19.6 14.4 69 3.5 E 11 13 6 7 1006.7 1005.1 0.0
01/04:30am 20.3 19.9 14.0 67 3.7 ENE 9 13 5 7 1006.5 1004.9 0.0
01/04:10am 20.9 20.5 14.1 65 4.0 ENE 9 13 5 7 1006.6 1005.0 0.0
01/04:00am 21.1 20.7 14.0 64 4.2 NE 9 11 5 6 1006.7 1005.1 0.0
01/03:56am 21.1 20.7 14.0 64 4.2 NE 9 11 5 6 1006.7 1005.1 0.0
01/03:30am 21.4 20.9 13.8 62 4.5 ENE 9 11 5 6 1006.9 1005.3 0.0
01/03:00am 22.0 21.2 14.1 61 4.7 ENE 11 13 6 7 1007.1 1005.5 0.0
01/02:30am 22.2 21.5 14.3 61 4.7 ENE 11 15 6 8 1007.3 1005.7 0.0
01/02:00am 22.6 22.1 15.0 62 4.6 ENE 11 15 6 8 1007.6 1006.1 0.0
01/01:30am 23.3 22.5 15.1 60 5.0 ENE 13 17 7 9 1007.9 1006.4 0.0
01/01:00am 24.5 23.3 16.0 59 5.2 ENE 17 20 9 11 1007.9 1006.4 0.0
01/12:30am 24.7 24.0 16.4 60 5.1 ENE 15 20 8 11 1008.0 1006.5 0.0
01/12:00am 24.8 24.5 16.5 60 5.2 ENE 13 20 7 11 1008.1 1006.6 0.0
 
Date/Time
EDT
Temp
°C
App
Temp
°C
Dew
Point
Rel
Hum
%
Delta-T
°C
Wind Press
QNH
hPa
Press
MSL
hPa
Rain
since 9 am
mm
Dir
 
Spd
km/h
Gust
km/h
Spd
kts
Gust
kts
28/11:32pm 24.6 24.2 16.1 59 5.2 ENE 13 15 7 8 1008.2 1006.7 0.0
28/11:30pm 24.6 24.2 16.1 59 5.2 ENE 13 15 7 8 1008.2 1006.7 0.0
28/11:16pm 24.2 23.7 15.9 59 5.1 ENE 13 15 7 8 1008.2 1006.7 0.0
28/11:00pm 23.9 23.6 15.4 59 5.2 ENE 11 13 6 7 1008.3 1006.8 0.0
28/10:30pm 24.0 23.7 15.5 59 5.2 E 11 13 6 7 1008.2 1006.7 0.0
28/10:00pm 24.9 24.5 15.2 54 5.9 ENE 11 13 6 7 1008.1 1006.6 0.0
28/09:30pm 26.5 26.1 15.2 49 6.9 ENE 11 13 6 7 1007.9 1006.4 0.0
28/09:00pm 26.8 26.5 15.5 50 7.0 E 11 13 6 7 1007.6 1006.1 0.0
28/08:30pm 26.6 26.1 15.0 49 7.1 ESE 11 13 6 7 1007.3 1005.7 0.0
28/08:00pm 27.8 26.7 14.4 43 8.2 ESE 13 15 7 8 1007.0 1005.4 0.0
28/07:30pm 30.0 29.4 14.5 38 9.5 ESE 11 17 6 9 1006.6 1005.0 0.0
28/07:00pm 31.7 31.2 14.8 36 10.5 E 11 13 6 7 1006.4 1004.8 0.0
28/06:30pm 32.9 32.6 15.4 35 11.0 ENE 11 15 6 8 1006.3 1004.7 0.0
28/06:00pm 32.4 32.7 15.0 35 10.9 NNE 7 11 4 6 1006.3 1004.7 0.0
28/05:30pm 33.0 32.2 15.0 33 11.3 NNE 13 20 7 11 1006.2 1004.6 0.0
28/05:00pm 33.5 33.0 15.0 32 11.6 NNE 11 20 6 11 1006.3 1004.7 0.0
28/04:30pm 33.6 32.6 14.6 31 11.8 E 13 19 7 10 1006.4 1004.8 0.0
28/04:00pm 34.2 34.0 15.6 32 11.8 WSW 11 20 6 11 1006.8 1005.2 0.0
28/03:30pm 32.7 32.2 14.8 34 11.1 NE 11 20 6 11 1007.1 1005.5 0.0
28/03:00pm 33.0 33.5 15.5 35 11.0 NNE 7 13 4 7 1007.6 1006.1 0.0
28/02:30pm 31.9 31.0 13.6 32 11.2 ENE 11 20 6 11 1007.9 1006.4 0.0
28/02:00pm 32.0 31.6 14.2 34 11.0 NNE 9 17 5 9 1008.4 1006.9 0.0
28/01:30pm 32.4 33.2 15.8 36 10.5 NNW 6 11 3 6 1008.8 1007.2 0.0
28/01:00pm 30.3 31.8 17.7 46 8.1 NNW 6 15 3 8 1009.3 1007.7 0.0
28/12:30pm 30.9 31.6 18.9 48 7.9 N 13 19 7 10 1009.9 1008.3 0.0
28/12:00pm 29.5 30.4 18.3 51 7.3 N 11 20 6 11 1010.2 1008.6 0.0
28/11:30am 28.5 29.1 18.6 55 6.4 ENE 13 22 7 12 1010.7 1009.1 0.0
28/11:00am 26.0 26.6 18.7 64 4.7 E 13 17 7 9 1011.0 1009.5 0.0
28/10:30am 24.7 24.9 17.7 65 4.4 E 13 20 7 11 1011.2 1009.7 0.0
28/10:00am 24.1 24.5 18.1 69 3.8 E 13 20 7 11 1011.0 1009.5 0.0
28/09:40am 23.5 23.2 18.2 72 3.4 ENE 17 22 9 12 1010.8 1009.3 0.0
28/09:30am 22.7 21.8 17.8 74 3.1 ENE 19 22 10 12 1010.7 1009.1 0.0
28/09:21am 22.3 21.2 17.7 75 2.9 ENE 20 28 11 15 1010.4 1008.8 0.0
28/09:00am 21.9 20.7 17.5 76 2.8 E 20 24 11 13 1010.5 1008.9 0.0
28/08:30am 21.4 19.3 17.2 77 2.6 E 24 32 13 17 1010.4 1008.8 0.0
28/08:00am 20.3 19.4 17.7 85 1.6 E 19 24 10 13 1010.6 1009.0 0.0
28/07:30am 19.8 19.0 17.2 85 1.6 E 17 22 9 12 1010.4 1008.8 0.0
28/07:00am 19.7 18.3 17.1 85 1.6 ESE 20 24 11 13 1010.1 1008.5 0.0
28/06:30am 19.8 19.0 17.0 84 1.7 ESE 17 20 9 11 1009.9 1008.3 0.0
28/06:00am 20.1 19.4 17.3 84 1.7 E 17 24 9 13 1009.5 1007.9 0.0
28/05:30am 20.1 19.0 17.3 84 1.7 E 19 26 10 14 1009.4 1007.8 0.0
28/05:00am 20.2 19.8 17.2 83 1.9 E 15 20 8 11 1009.1 1007.5 0.0
28/04:30am 20.6 19.8 17.2 81 2.1 ESE 17 24 9 13 1009.1 1007.5 0.0
28/04:00am 21.1 19.8 17.3 79 2.4 E 20 26 11 14 1009.3 1007.7 0.0
28/03:30am 21.1 20.3 17.1 78 2.5 E 17 22 9 12 1009.1 1007.5 0.0
28/03:00am 21.3 21.3 17.3 78 2.5 ESE 13 22 7 12 1009.2 1007.6 0.0
28/02:30am 21.3 21.6 16.9 76 2.7 E 11 19 6 10 1009.2 1007.6 0.0
28/02:00am 21.9 21.5 17.1 74 3.0 E 15 24 8 13 1009.3 1007.7 0.0
28/01:30am 22.3 21.8 16.8 71 3.4 ENE 15 22 8 12 1009.5 1007.9 0.0
28/01:00am 22.6 21.6 16.6 69 3.7 ENE 17 24 9 13 1009.5 1007.9 0.0
28/12:30am 22.7 21.6 16.3 67 3.9 ENE 17 24 9 13 1009.5 1007.9 0.0
28/12:00am 23.1 21.4 15.7 63 4.5 ENE 19 28 10 15 1009.5 1007.9 0.0
 
Date/Time
EDT
Temp
°C
App
Temp
°C
Dew
Point
Rel
Hum
%
Delta-T
°C
Wind Press
QNH
hPa
Press
MSL
hPa
Rain
since 9 am
mm
Dir
 
Spd
km/h
Gust
km/h
Spd
kts
Gust
kts
27/11:30pm 23.5 21.5 15.0 59 5.1 ENE 19 24 10 13 1009.3 1007.7 0.0
27/11:00pm 21.1 20.0 13.0 60 4.7 ENE 11 15 6 8 1009.5 1007.9 0.0
27/10:30pm 22.1 21.8 11.5 51 6.0 E 4 6 2 3 1009.3 1007.7 0.0
27/10:00pm 22.9 22.6 11.6 49 6.4 ENE 4 7 2 4 1009.3 1007.7 0.0
27/09:30pm 22.7 21.3 10.8 47 6.7 ENE 9 15 5 8 1008.9 1007.3 0.0
27/09:00pm 24.1 23.0 10.7 43 7.6 E 7 11 4 6 1008.6 1007.0 0.0
27/08:30pm 23.7 22.2 10.7 44 7.3 SE 9 9 5 5 1007.9 1006.4 0.0
27/08:00pm 24.5 23.1 9.6 39 8.3 SE 7 7 4 4 1007.7 1006.2 0.0
27/07:30pm 28.0 26.5 9.3 31 10.5 SSE 7 9 4 5 1007.3 1005.7 0.0
27/07:00pm 30.1 27.8 9.1 27 11.9 S 11 15 6 8 1007.2 1005.6 0.0
27/06:30pm 31.2 29.4 9.4 26 12.4 SE 9 13 5 7 1007.1 1005.5 0.0
27/06:00pm 31.5 29.6 9.1 25 12.8 SE 9 17 5 9 1007.0 1005.4 0.0
27/05:30pm 31.7 30.0 9.8 26 12.6 ESE 9 15 5 8 1007.1 1005.5 0.0
27/05:00pm 32.3 30.8 10.4 26 12.8 SE 9 17 5 9 1006.9 1005.3 0.0
27/04:30pm 32.3 30.2 9.8 25 13.0 ESE 11 19 6 10 1007.0 1005.4 0.0
27/04:00pm 32.3 31.8 12.5 30 11.9 S 7 17 4 9 1007.2 1005.6 0.0
27/03:30pm 32.3 30.7 11.5 28 12.3 SSW 11 20 6 11 1007.6 1006.1 0.0
27/03:00pm 31.1 30.3 12.9 32 11.0 S 9 13 5 7 1007.9 1006.4 0.0
27/02:30pm 30.9 30.3 14.5 37 10.1 SSE 11 20 6 11 1008.3 1006.8 0.0

Other Formats:

Comma delimited format used in spreadsheet applications
http://www.bom.gov.au/fwo/IDN60801/IDN60801.95719.axf

JavaScript Object Notation format (JSON) in row-major order
http://www.bom.gov.au/fwo/IDN60801/IDN60801.95719.json